Plaster Rock, Canada
Current Conditions -  °F | °C
As of 1:54 AM on Saturday 20 Dec 2014 (Local Time) from KCAR Reporting Station
Clear Clear  
Wind Chill:   Ceiling: Unl
Heat Index: 12°   Visibility: 10mi
Dew Point:   Wind: 9mph
Humidity: 88%   Direction: 330°NNW
Pressure: 30.15"   Gusts: NA
Location:  46.9°N, 67.38°W
Report Text: KCAR 200554Z AUTO 33008KT 10SM CLR M11/M13 A3015 RMK AO2 SLP226 I1000 I6000 T11111128 11083 21117 53018
Loading
Personal Weather Stations






























Interactive Weather Map New forecast layout! Learn more

10-Day Weather Forecast

Advertisements
Track Severe Weather on mobile